Time,TemperatureF,DewpointF,PressureIn,WindDirection,WindDirectionDegrees,WindSpeedMPH,WindSpeedGustMPH,Humidity,HourlyPrecipIn,Conditions,Clouds,dailyrainin,SolarRadiationWatts/m^2,SoftwareType,DateUTC
2013-11-07 00:23:00,27.0,26.0,-100.00,West,274,4.0,8.0,94,0.00,,,0.00,0.000000,,2013-11-07 06:23:00,
2013-11-07 00:32:00,27.0,26.0,-100.00,West,274,4.0,8.0,94,0.00,,,0.00,0.000000,,2013-11-07 06:32:00,
2013-11-07 00:42:00,27.0,26.0,-100.00,West,274,4.0,8.0,94,0.00,,,0.00,0.000000,,2013-11-07 06:42:00,
2013-11-07 00:52:00,27.0,26.0,-100.00,West,274,4.0,8.0,94,0.00,,,0.00,0.000000,,2013-11-07 06:52:00,
2013-11-07 01:22:00,29.0,27.0,-100.00,West,263,5.0,7.0,94,0.00,,,0.00,0.000000,,2013-11-07 07:22:00,
2013-11-07 01:32:00,29.0,27.0,-100.00,West,263,5.0,7.0,94,0.00,,,0.00,0.000000,,2013-11-07 07:32:00,
2013-11-07 01:42:00,29.0,27.0,-100.00,West,263,5.0,7.0,94,0.00,,,0.00,0.000000,,2013-11-07 07:42:00,
2013-11-07 01:52:00,29.0,27.0,-100.00,West,263,5.0,7.0,94,0.00,,,0.00,0.000000,,2013-11-07 07:52:00,
2013-11-07 02:22:00,28.0,26.0,-100.00,West,263,5.0,7.0,93,0.00,,,0.00,0.000000,,2013-11-07 08:22:00,
2013-11-07 02:32:00,28.0,26.0,-100.00,West,263,5.0,7.0,93,0.00,,,0.00,0.000000,,2013-11-07 08:32:00,
2013-11-07 02:42:00,28.0,26.0,-100.00,West,263,5.0,7.0,93,0.00,,,0.00,0.000000,,2013-11-07 08:42:00,
2013-11-07 02:52:00,28.0,26.0,-100.00,West,263,5.0,7.0,93,0.00,,,0.00,0.000000,,2013-11-07 08:52:00,
2013-11-07 03:22:00,31.0,29.0,-100.00,West,281,7.0,9.0,93,0.00,,,0.00,0.000000,,2013-11-07 09:22:00,
2013-11-07 03:33:00,31.0,29.0,-100.00,West,281,7.0,9.0,93,0.00,,,0.00,0.000000,,2013-11-07 09:33:00,
2013-11-07 03:42:00,31.0,29.0,-100.00,West,281,7.0,9.0,93,0.00,,,0.00,0.000000,,2013-11-07 09:42:00,
2013-11-07 03:53:00,31.0,29.0,-100.00,West,281,7.0,9.0,93,0.00,,,0.00,0.000000,,2013-11-07 09:53:00,
2013-11-07 04:23:00,32.0,29.0,-100.00,WNW,294,8.0,12.0,88,0.00,,,0.00,0.000000,,2013-11-07 10:23:00,
2013-11-07 04:33:00,32.0,29.0,-100.00,WNW,294,8.0,12.0,88,0.00,,,0.00,0.000000,,2013-11-07 10:33:00,
2013-11-07 04:42:00,32.0,29.0,-100.00,WNW,294,8.0,12.0,88,0.00,,,0.00,0.000000,,2013-11-07 10:42:00,
2013-11-07 04:52:00,32.0,29.0,-100.00,WNW,294,8.0,12.0,88,0.00,,,0.00,0.000000,,2013-11-07 10:52:00,
2013-11-07 05:22:00,32.0,29.0,-100.00,WNW,291,7.0,13.0,90,0.00,,,0.00,0.000000,,2013-11-07 11:22:00,
2013-11-07 05:43:00,32.0,29.0,-100.00,WNW,291,7.0,13.0,90,0.00,,,0.00,0.000000,,2013-11-07 11:43:00,
2013-11-07 05:52:00,32.0,29.0,-100.00,WNW,291,7.0,13.0,90,0.00,,,0.00,0.000000,,2013-11-07 11:52:00,
2013-11-07 06:22:00,33.0,30.0,-100.00,WNW,297,10.0,14.0,89,0.00,,,0.00,0.000000,,2013-11-07 12:22:00,
2013-11-07 06:32:00,33.0,30.0,-100.00,WNW,297,10.0,14.0,89,0.00,,,0.00,0.000000,,2013-11-07 12:32:00,
2013-11-07 06:42:00,33.0,30.0,-100.00,WNW,297,10.0,14.0,89,0.00,,,0.00,0.000000,,2013-11-07 12:42:00,
2013-11-07 06:52:00,33.0,30.0,-100.00,WNW,297,10.0,14.0,89,0.00,,,0.00,0.000000,,2013-11-07 12:52:00,
2013-11-07 07:21:00,33.0,30.0,-100.00,WNW,298,10.0,14.0,89,0.00,,,0.00,0.000000,,2013-11-07 13:21:00,
2013-11-07 07:32:00,33.0,30.0,-100.00,WNW,298,10.0,14.0,89,0.00,,,0.00,0.000000,,2013-11-07 13:32:00,
2013-11-07 07:42:00,33.0,30.0,-100.00,WNW,298,10.0,14.0,89,0.00,,,0.00,0.000000,,2013-11-07 13:42:00,
2013-11-07 07:52:00,33.0,30.0,-100.00,WNW,298,10.0,14.0,89,0.00,,,0.00,0.000000,,2013-11-07 13:52:00,
2013-11-07 08:22:00,35.0,31.0,-100.00,WNW,297,10.0,14.0,86,0.00,,,0.00,0.000000,,2013-11-07 14:22:00,
2013-11-07 08:32:00,35.0,31.0,-100.00,WNW,297,10.0,14.0,86,0.00,,,0.00,0.000000,,2013-11-07 14:32:00,
2013-11-07 08:42:00,35.0,31.0,-100.00,WNW,297,10.0,14.0,86,0.00,,,0.00,0.000000,,2013-11-07 14:42:00,
2013-11-07 08:52:00,35.0,31.0,-100.00,WNW,297,10.0,14.0,86,0.00,,,0.00,0.000000,,2013-11-07 14:52:00,
2013-11-07 09:22:00,37.0,32.0,-100.00,NW,305,11.0,15.0,83,0.00,,,0.00,0.000000,,2013-11-07 15:22:00,
2013-11-07 09:33:00,37.0,32.0,-100.00,NW,305,11.0,15.0,83,0.00,,,0.00,0.000000,,2013-11-07 15:33:00,
2013-11-07 09:43:00,37.0,32.0,-100.00,NW,305,11.0,15.0,83,0.00,,,0.00,0.000000,,2013-11-07 15:43:00,
2013-11-07 09:53:00,37.0,32.0,-100.00,NW,305,11.0,15.0,83,0.00,,,0.00,0.000000,,2013-11-07 15:53:00,
2013-11-07 10:23:00,41.0,33.0,-100.00,NW,305,10.0,15.0,72,0.00,,,0.00,0.000000,,2013-11-07 16:23:00,
2013-11-07 10:33:00,41.0,33.0,-100.00,NW,305,10.0,15.0,72,0.00,,,0.00,0.000000,,2013-11-07 16:33:00,
2013-11-07 10:42:00,41.0,33.0,-100.00,NW,305,10.0,15.0,72,0.00,,,0.00,0.000000,,2013-11-07 16:42:00,
2013-11-07 10:52:00,41.0,33.0,-100.00,NW,305,10.0,15.0,72,0.00,,,0.00,0.000000,,2013-11-07 16:52:00,
2013-11-07 11:22:00,45.0,30.0,-100.00,NW,320,10.0,15.0,56,0.00,,,0.00,0.000000,,2013-11-07 17:22:00,
2013-11-07 11:33:00,45.0,30.0,-100.00,NW,320,10.0,15.0,56,0.00,,,0.00,0.000000,,2013-11-07 17:33:00,
2013-11-07 11:43:00,45.0,30.0,-100.00,NW,320,10.0,15.0,56,0.00,,,0.00,0.000000,,2013-11-07 17:43:00,
2013-11-07 11:52:00,45.0,30.0,-100.00,NW,320,10.0,15.0,56,0.00,,,0.00,0.000000,,2013-11-07 17:52:00,
2013-11-07 12:23:00,48.0,29.0,-100.00,NW,304,8.0,14.0,48,0.00,,,0.00,0.000000,,2013-11-07 18:23:00,
2013-11-07 12:32:00,48.0,29.0,-100.00,NW,304,8.0,14.0,48,0.00,,,0.00,0.000000,,2013-11-07 18:32:00,
2013-11-07 12:42:00,48.0,29.0,-100.00,NW,304,8.0,14.0,48,0.00,,,0.00,0.000000,,2013-11-07 18:42:00,
2013-11-07 12:52:00,48.0,29.0,-100.00,NW,304,8.0,14.0,48,0.00,,,0.00,0.000000,,2013-11-07 18:52:00,
2013-11-07 13:21:00,50.0,28.0,-100.00,NW,318,7.0,14.0,42,0.00,,,0.00,0.000000,,2013-11-07 19:21:00,
2013-11-07 13:32:00,50.0,28.0,-100.00,NW,318,7.0,14.0,42,0.00,,,0.00,0.000000,,2013-11-07 19:32:00,
2013-11-07 13:42:00,50.0,28.0,-100.00,NW,318,7.0,14.0,42,0.00,,,0.00,0.000000,,2013-11-07 19:42:00,
2013-11-07 13:52:00,50.0,28.0,-100.00,NW,318,7.0,14.0,42,0.00,,,0.00,0.000000,,2013-11-07 19:52:00,
2013-11-07 14:22:00,51.0,29.0,-100.00,NW,314,8.0,12.0,42,0.00,,,0.00,0.000000,,2013-11-07 20:22:00,
2013-11-07 14:32:00,51.0,29.0,-100.00,NW,314,8.0,12.0,42,0.00,,,0.00,0.000000,,2013-11-07 20:32:00,
2013-11-07 14:42:00,51.0,29.0,-100.00,NW,314,8.0,12.0,42,0.00,,,0.00,0.000000,,2013-11-07 20:42:00,
2013-11-07 14:52:00,51.0,29.0,-100.00,NW,314,8.0,12.0,42,0.00,,,0.00,0.000000,,2013-11-07 20:52:00,
2013-11-07 15:22:00,51.0,29.0,-100.00,WNW,297,6.0,12.0,42,0.00,,,0.00,0.000000,,2013-11-07 21:22:00,
2013-11-07 15:34:00,51.0,29.0,-100.00,WNW,297,6.0,12.0,42,0.00,,,0.00,0.000000,,2013-11-07 21:34:00,
2013-11-07 15:43:00,51.0,29.0,-100.00,WNW,297,6.0,12.0,42,0.00,,,0.00,0.000000,,2013-11-07 21:43:00,
2013-11-07 15:53:00,51.0,29.0,-100.00,WNW,297,6.0,12.0,42,0.00,,,0.00,0.000000,,2013-11-07 21:53:00,
2013-11-07 16:23:00,52.0,28.0,-100.00,NW,313,4.0,9.0,40,0.00,,,0.00,0.000000,,2013-11-07 22:23:00,
2013-11-07 16:33:00,52.0,28.0,-100.00,NW,313,4.0,9.0,40,0.00,,,0.00,0.000000,,2013-11-07 22:33:00,
2013-11-07 16:43:00,52.0,28.0,-100.00,NW,313,4.0,9.0,40,0.00,,,0.00,0.000000,,2013-11-07 22:43:00,
2013-11-07 16:53:00,52.0,28.0,-100.00,NW,313,4.0,9.0,40,0.00,,,0.00,0.000000,,2013-11-07 22:53:00,
2013-11-07 17:22:00,52.0,28.0,-100.00,WSW,257,1.0,5.0,39,0.00,,,0.00,0.000000,,2013-11-07 23:22:00,
2013-11-07 17:34:00,52.0,28.0,-100.00,WSW,257,1.0,5.0,39,0.00,,,0.00,0.000000,,2013-11-07 23:34:00,
2013-11-07 17:43:00,52.0,28.0,-100.00,WSW,257,1.0,5.0,39,0.00,,,0.00,0.000000,,2013-11-07 23:43:00,
2013-11-07 17:53:00,52.0,28.0,-100.00,WSW,257,1.0,5.0,39,0.00,,,0.00,0.000000,,2013-11-07 23:53:00,
2013-11-07 18:22:00,41.0,27.0,-100.00,SE,139,5.0,6.0,56,0.00,,,0.00,0.000000,,2013-11-08 00:22:00,
2013-11-07 18:32:00,41.0,27.0,-100.00,SE,139,5.0,6.0,56,0.00,,,0.00,0.000000,,2013-11-08 00:32:00,
2013-11-07 18:42:00,41.0,27.0,-100.00,SE,139,5.0,6.0,56,0.00,,,0.00,0.000000,,2013-11-08 00:42:00,
2013-11-07 18:52:00,41.0,27.0,-100.00,SE,139,5.0,6.0,56,0.00,,,0.00,0.000000,,2013-11-08 00:52:00,
2013-11-07 19:22:00,38.0,29.0,-100.00,SE,145,7.0,7.0,71,0.00,,,0.00,0.000000,,2013-11-08 01:22:00,
2013-11-07 19:32:00,38.0,29.0,-100.00,SE,145,7.0,7.0,71,0.00,,,0.00,0.000000,,2013-11-08 01:32:00,
2013-11-07 19:42:00,38.0,29.0,-100.00,SE,145,7.0,7.0,71,0.00,,,0.00,0.000000,,2013-11-08 01:42:00,
2013-11-07 19:52:00,38.0,29.0,-100.00,SE,145,7.0,7.0,71,0.00,,,0.00,0.000000,,2013-11-08 01:52:00,
2013-11-07 20:21:00,34.0,28.0,-100.00,SE,139,7.0,8.0,80,0.00,,,0.00,0.000000,,2013-11-08 02:21:00,
2013-11-07 20:32:00,34.0,28.0,-100.00,SE,139,7.0,8.0,80,0.00,,,0.00,0.000000,,2013-11-08 02:32:00,
2013-11-07 20:42:00,34.0,28.0,-100.00,SE,139,7.0,8.0,80,0.00,,,0.00,0.000000,,2013-11-08 02:42:00,
2013-11-07 20:52:00,34.0,28.0,-100.00,SE,139,7.0,8.0,80,0.00,,,0.00,0.000000,,2013-11-08 02:52:00,
2013-11-07 21:22:00,35.0,31.0,-100.00,SSE,151,7.0,8.0,86,0.00,,,0.00,0.000000,,2013-11-08 03:22:00,
2013-11-07 21:34:00,35.0,31.0,-100.00,SSE,151,7.0,8.0,86,0.00,,,0.00,0.000000,,2013-11-08 03:34:00,
2013-11-07 21:44:00,35.0,31.0,-100.00,SSE,151,7.0,8.0,86,0.00,,,0.00,0.000000,,2013-11-08 03:44:00,
2013-11-07 21:55:00,35.0,31.0,-100.00,SSE,151,7.0,8.0,86,0.00,,,0.00,0.000000,,2013-11-08 03:55:00,
2013-11-07 23:23:00,38.0,32.0,-100.00,SE,144,9.0,12.0,80,-99.99,,,0.00,0.000000,,2013-11-08 05:23:00,
2013-11-07 23:34:00,38.0,32.0,-100.00,SE,144,9.0,12.0,80,-99.99,,,0.00,0.000000,,2013-11-08 05:34:00,
2013-11-07 23:43:00,38.0,32.0,-100.00,SE,144,9.0,12.0,80,-99.99,,,0.00,0.000000,,2013-11-08 05:43:00,
2013-11-07 23:54:00,38.0,32.0,-100.00,SE,144,9.0,12.0,80,-99.99,,,0.00,0.000000,,2013-11-08 05:54:00,